Latest Weather Observations for Paraburdoo

IDW60801

Issued at 10:34 am WST Sunday 5 July 2015 (issued every 30 minutes, with the page automatically refreshed every 10 minutes)

About weather observations | Map of weather stations | Latest weather observations for WA | Other Formats
Station Details ID: 007185 Name: PARABURDOO AERO Lat: -23.17 Lon: 117.75 Height: 423.7 m
Data from the previous 72 hours. | See also: Recent months at Paraburdoo
Date/Time
WST
Temp
°C
App
Temp
°C
Dew
Point
Rel
Hum
%
Delta-T
°C
Wind Press
QNH
hPa
Press
MSL
hPa
Rain
since 9 am
mm
Dir
 
Spd
km/h
Gust
km/h
Spd
kts
Gust
kts
05/10:30am 22.7 19.0 2.2 26 9.8 NE 11 15 6 8 1022.3 1021.3 0.0
05/10:00am 21.3 17.5 1.6 27 9.2 ENE 11 15 6 8 1022.7 1021.7 0.0
05/09:30am 20.1 16.3 1.5 29 8.6 ENE 11 13 6 7 1022.7 1021.7 0.0
05/09:00am 18.2 13.7 2.1 34 7.4 ENE 15 17 8 9 1022.4 1021.4 0.0
05/08:30am 15.4 11.7 2.6 42 5.9 NE 11 17 6 9 1022.2 1021.2 0.0
05/08:00am 13.1 9.1 2.6 49 4.7 ENE 13 17 7 9 1022.1 1021.1 0.0
05/07:30am 11.3 7.2 2.1 53 4.0 NE 13 17 7 9 1021.9 1020.9 0.0
05/07:00am 9.6 4.7 2.0 59 3.3 ENE 17 19 9 10 1021.5 1020.5 0.0
05/06:30am 9.6 4.7 1.8 58 3.3 NE 17 19 9 10 1021.2 1020.1 0.0
05/06:00am 9.9 5.0 2.0 58 3.4 ENE 17 20 9 11 1020.9 1019.9 0.0
05/05:30am 9.2 5.0 1.9 60 3.1 NE 13 15 7 8 1020.7 1019.7 0.0
05/05:00am 9.7 5.9 1.8 58 3.4 ENE 11 17 6 9 1020.7 1019.7 0.0
05/04:30am 9.0 5.5 1.4 59 3.2 ENE 9 11 5 6 1020.5 1019.5 0.0
05/04:00am 9.8 6.0 1.9 58 3.4 ENE 11 13 6 7 1020.5 1019.5 0.0
05/03:30am 9.7 5.9 1.6 57 3.5 ENE 11 13 6 7 1020.6 1019.6 0.0
05/03:00am 10.2 5.6 1.8 56 3.6 ENE 15 17 8 9 1020.6 1019.6 0.0
05/02:30am 9.6 6.2 1.8 58 3.3 E 9 11 5 6 1020.5 1019.5 0.0
05/02:00am 10.1 6.6 1.5 55 3.7 ENE 9 11 5 6 1020.6 1019.6 0.0
05/01:30am 10.4 6.3 2.0 56 3.6 NE 13 15 7 8 1020.8 1019.8 0.0
05/01:00am 10.2 6.1 2.1 57 3.5 NE 13 15 7 8 1020.9 1019.9 0.0
05/12:30am 10.9 7.2 2.5 56 3.7 NNE 11 13 6 7 1020.9 1019.9 0.0
05/12:00am 10.8 6.7 2.1 55 3.8 NNE 13 13 7 7 1020.9 1019.9 0.0
 
Date/Time
WST
Temp
°C
App
Temp
°C
Dew
Point
Rel
Hum
%
Delta-T
°C
Wind Press
QNH
hPa
Press
MSL
hPa
Rain
since 9 am
mm
Dir
 
Spd
km/h
Gust
km/h
Spd
kts
Gust
kts
04/11:30pm 11.7 8.4 2.5 53 4.1 NE 9 11 5 6 1021.1 1020.0 0.0
04/11:00pm 12.2 7.7 2.4 51 4.3 NE 15 15 8 8 1021.2 1020.1 0.0
04/10:30pm 12.2 8.1 2.1 50 4.5 NE 13 13 7 7 1021.3 1020.2 0.0
04/10:00pm 13.2 8.6 1.8 46 5.0 NNE 15 17 8 9 1021.4 1020.4 0.0
04/09:30pm 14.1 11.0 1.1 41 5.7 E 7 9 4 5 1021.3 1020.2 0.0
04/09:00pm 14.6 10.7 1.2 40 5.9 ESE 11 13 6 7 1021.2 1020.1 0.0
04/08:30pm 15.7 11.7 0.7 36 6.6 ESE 11 13 6 7 1021.1 1020.0 0.0
04/08:00pm 16.9 12.6 1.0 34 7.1 ESE 13 13 7 7 1020.8 1019.8 0.0
04/07:30pm 17.4 13.1 1.0 33 7.4 E 13 15 7 8 1020.7 1019.7 0.0
04/07:00pm 17.8 13.5 0.9 32 7.6 ESE 13 15 7 8 1020.5 1019.5 0.0
04/06:30pm 19.2 15.2 0.8 29 8.4 SE 11 13 6 7 1020.3 1019.3 0.0
04/06:00pm 21.3 17.2 -0.1 24 9.7 ESE 11 13 6 7 1020.0 1019.0 0.0
04/05:30pm 22.9 19.2 0.1 22 10.6 ESE 9 11 5 6 1019.9 1018.9 0.0
04/05:00pm 24.7 20.2 -0.4 19 11.7 ESE 13 19 7 10 1019.7 1018.7 0.0
04/04:30pm 25.4 20.9 -0.6 18 12.1 SE 13 22 7 12 1019.7 1018.7 0.0
04/04:00pm 25.9 20.9 -1.0 17 12.5 SE 15 20 8 11 1019.9 1018.9 0.0
04/03:30pm 26.0 21.2 -0.1 18 12.3 ESE 15 26 8 14 1019.9 1018.9 0.0
04/03:00pm 26.1 21.2 -0.8 17 12.5 ESE 15 24 8 13 1019.9 1018.9 0.0
04/02:30pm 26.3 22.9 1.6 20 12.1 NE 9 22 5 12 1020.0 1019.0 0.0
04/02:00pm 25.7 20.7 1.1 20 11.8 ESE 17 24 9 13 1020.3 1019.3 0.0
04/01:30pm 25.3 19.8 0.7 20 11.7 ESE 19 26 10 14 1020.6 1019.6 0.0
04/01:00pm 24.7 19.4 1.6 22 11.1 ESE 19 32 10 17 1020.9 1019.9 0.0
04/12:30pm 25.0 19.1 1.8 22 11.3 ESE 22 32 12 17 1021.3 1020.2 0.0
04/12:00pm 24.8 19.3 1.7 22 11.2 E 20 30 11 16 1021.7 1020.7 0.0
04/11:30am 24.7 19.7 1.6 22 11.2 E 17 24 9 13 1022.2 1021.2 0.0
04/11:00am 23.9 18.5 1.5 23 10.7 E 19 24 10 13 1022.6 1021.6 0.0
04/10:30am 23.9 20.9 4.3 28 9.9 ENE 9 15 5 8 1022.8 1021.8 0.0
04/10:00am 21.9 19.0 4.5 32 8.7 NE 9 13 5 7 1023.2 1022.2 0.0
04/09:30am 20.3 17.0 4.4 35 7.9 NE 11 13 6 7 1023.2 1022.2 0.0
04/09:00am 17.9 14.3 4.8 42 6.4 NE 13 17 7 9 1023.0 1022.0 0.0
04/08:30am 16.2 11.8 4.6 46 5.6 ENE 17 20 9 11 1022.8 1021.8 0.0
04/08:00am 14.0 10.3 4.6 53 4.4 NE 13 17 7 9 1022.5 1021.5 0.0
04/07:30am 11.9 8.6 4.4 60 3.5 NE 11 13 6 7 1022.3 1021.3 0.0
04/07:00am 10.2 6.9 4.4 67 2.6 ENE 11 15 6 8 1022.1 1021.1 0.0
04/06:30am 10.2 6.1 4.1 66 2.8 NE 15 17 8 9 1021.8 1020.8 0.0
04/06:00am 10.0 6.2 3.7 65 2.8 NE 13 15 7 8 1021.6 1020.6 0.0
04/05:30am 10.5 7.5 4.0 64 3.0 ENE 9 11 5 6 1021.4 1020.4 0.0
04/05:00am 10.0 6.5 3.7 65 2.8 ENE 11 13 6 7 1021.1 1020.0 0.0
04/04:30am 10.5 7.1 4.0 64 3.0 NE 11 15 6 8 1021.2 1020.1 0.0
04/04:00am 10.1 7.0 3.6 64 2.9 NE 9 15 5 8 1021.2 1020.1 0.0
04/03:30am 9.4 6.3 3.6 67 2.6 NE 9 15 5 8 1021.4 1020.4 0.0
04/03:00am 10.3 6.9 3.8 64 2.9 NE 11 11 6 6 1021.5 1020.5 0.0
04/02:30am 10.4 5.8 3.9 64 2.9 NE 17 17 9 9 1021.5 1020.5 0.0
04/02:00am 10.6 6.4 3.9 63 3.0 NE 15 17 8 9 1021.9 1020.9 0.0
04/01:30am 10.2 7.1 3.5 63 3.0 NE 9 13 5 7 1022.0 1021.0 0.0
04/01:00am 10.7 7.2 3.5 61 3.2 NE 11 11 6 6 1022.1 1021.1 0.0
04/12:30am 11.1 8.0 3.6 60 3.4 ENE 9 13 5 7 1022.1 1021.1 0.0
04/12:00am 10.7 8.1 3.0 59 3.4 ENE 6 7 3 4 1022.1 1021.1 0.0
 
Date/Time
WST
Temp
°C
App
Temp
°C
Dew
Point
Rel
Hum
%
Delta-T
°C
Wind Press
QNH
hPa
Press
MSL
hPa
Rain
since 9 am
mm
Dir
 
Spd
km/h
Gust
km/h
Spd
kts
Gust
kts
03/11:30pm 10.7 7.9 3.0 59 3.4 ESE 7 11 4 6 1022.2 1021.2 0.0
03/11:00pm 12.2 9.7 3.9 57 3.8 NE 6 7 3 4 1022.3 1021.3 0.0
03/10:30pm 12.4 8.5 3.6 55 4.0 NNE 13 15 7 8 1022.4 1021.4 0.0
03/10:00pm 12.6 8.7 3.3 53 4.2 NNE 13 15 7 8 1022.4 1021.4 0.0
03/09:30pm 13.4 9.8 2.9 49 4.8 NE 11 13 6 7 1022.4 1021.4 0.0
03/09:00pm 15.6 11.9 2.4 41 6.0 E 11 13 6 7 1022.4 1021.4 0.0
03/08:30pm 15.7 12.0 2.5 41 6.1 ESE 11 13 6 7 1022.2 1021.2 0.0
03/08:00pm 17.6 14.7 2.8 37 6.9 SE 7 11 4 6 1022.1 1021.1 0.0
03/07:30pm 17.0 13.7 2.2 37 6.8 E 9 13 5 7 1021.9 1020.9 0.0
03/07:00pm 18.1 14.7 2.0 34 7.4 E 9 11 5 6 1021.7 1020.7 0.0
03/06:30pm 19.7 16.3 2.1 31 8.3 SE 9 11 5 6 1021.5 1020.5 0.0
03/06:00pm 21.1 17.4 2.4 29 8.9 SSE 11 13 6 7 1021.2 1020.1 0.0
03/05:30pm 22.9 19.2 2.4 26 9.9 SE 11 15 6 8 1020.8 1019.8 0.0
03/05:00pm 24.7 20.6 2.2 23 11.0 SSE 13 17 7 9 1020.6 1019.6 0.0
03/04:30pm 25.2 21.1 2.0 22 11.3 S 13 17 7 9 1020.4 1019.4 0.0
03/04:00pm 25.8 23.0 3.1 23 11.3 E 7 15 4 8 1020.4 1019.4 0.0
03/03:30pm 25.5 21.0 2.2 22 11.4 ESE 15 20 8 11 1020.4 1019.4 0.0
03/03:00pm 25.9 22.0 3.2 23 11.4 E 13 20 7 11 1020.6 1019.6 0.0
03/02:30pm 25.7 21.6 2.4 22 11.5 ENE 13 20 7 11 1020.7 1019.7 0.0
03/02:00pm 25.5 21.9 2.9 23 11.2 ENE 11 24 6 13 1020.8 1019.8 0.0
03/01:30pm 25.3 21.4 3.3 24 11.0 ESE 13 24 7 13 1021.2 1020.1 0.0
03/01:00pm 25.2 20.4 2.6 23 11.1 ESE 17 26 9 14 1021.6 1020.6 0.0
03/12:30pm 25.3 21.7 2.7 23 11.2 ENE 11 22 6 12 1021.9 1020.9 0.0
03/12:00pm 24.9 20.6 3.5 25 10.7 ENE 15 35 8 19 1022.2 1021.2 0.0
03/11:30am 24.2 18.5 2.9 25 10.5 ENE 22 32 12 17 1022.7 1021.7 0.0
03/11:00am 24.4 19.2 3.7 26 10.3 NE 20 26 11 14 1023.1 1022.1 0.0
03/10:30am 23.6 18.7 4.0 28 9.8 NE 19 24 10 13 1023.4 1022.5 0.0
03/10:00am 22.3 17.2 3.9 30 9.1 NE 20 24 11 13 1023.7 1022.7 0.0
03/09:30am 20.9 16.1 4.9 35 8.0 NE 19 22 10 12 1023.8 1022.8 0.0
03/09:00am 18.8 15.1 4.6 39 6.9 NE 13 17 7 9 1023.8 1022.8 0.0
03/08:30am 16.7 13.1 5.0 46 5.7 NE 13 17 7 9 1023.7 1022.7 0.0
03/08:00am 14.5 10.5 4.8 52 4.6 NE 15 19 8 10 1023.4 1022.5 0.0
03/07:30am 12.8 9.1 4.5 57 3.9 NE 13 17 7 9 1023.0 1022.0 0.0
03/07:00am 10.8 7.1 4.3 64 3.0 NE 13 17 7 9 1022.8 1021.8 0.0
03/06:30am 10.7 6.6 4.2 64 3.0 ENE 15 17 8 9 1022.6 1021.6 0.0
03/06:00am 10.4 6.6 4.1 65 2.9 NE 13 15 7 8 1022.3 1021.3 0.0
03/05:30am 10.6 7.2 4.1 64 3.0 ENE 11 15 6 8 1022.1 1021.1 0.0
03/05:00am 10.6 6.8 4.1 64 2.9 NE 13 15 7 8 1022.0 1021.0 0.0
03/04:30am 11.0 6.5 4.2 63 3.1 ENE 17 19 9 10 1021.9 1020.9 0.0
03/04:00am 11.2 7.8 4.2 62 3.2 ENE 11 17 6 9 1022.0 1021.0 0.0
03/03:30am 11.3 8.2 3.8 60 3.4 ENE 9 11 5 6 1022.0 1021.0 0.0
03/03:00am 11.7 8.3 4.0 59 3.5 NE 11 13 6 7 1022.1 1021.1 0.0
03/02:30am 12.1 8.3 4.1 58 3.7 NE 13 15 7 8 1022.2 1021.2 0.0
03/02:00am 11.4 7.6 3.9 60 3.4 ENE 13 15 7 8 1022.5 1021.5 0.0
03/01:30am 11.9 7.3 3.9 58 3.7 NE 17 19 9 10 1022.5 1021.5 0.0
03/01:00am 12.3 8.9 3.8 56 3.9 ENE 11 13 6 7 1022.8 1021.8 0.0
03/12:30am 12.5 8.7 4.0 56 3.9 NE 13 15 7 8 1022.8 1021.8 0.0
03/12:00am 13.0 9.6 3.9 54 4.2 NE 11 13 6 7 1023.0 1022.0 0.0
 
Date/Time
WST
Temp
°C
App
Temp
°C
Dew
Point
Rel
Hum
%
Delta-T
°C
Wind Press
QNH
hPa
Press
MSL
hPa
Rain
since 9 am
mm
Dir
 
Spd
km/h
Gust
km/h
Spd
kts
Gust
kts
02/11:30pm 14.2 10.0 3.9 50 4.8 NE 15 17 8 9 1023.1 1022.1 0.0
02/11:00pm 13.9 10.1 3.9 51 4.6 NE 13 15 7 8 1023.2 1022.2 0.0
02/10:30pm 13.9 10.4 3.4 49 4.8 NE 11 13 6 7 1023.3 1022.3 0.0
02/10:00pm 14.3 10.4 3.2 47 5.1 NE 13 15 7 8 1023.4 1022.5 0.0
02/09:30pm 14.6 10.3 3.4 47 5.2 NE 15 17 8 9 1023.3 1022.3 0.0
02/09:00pm 14.0 10.0 2.9 47 5.0 NE 13 15 7 8 1023.2 1022.2 0.0
02/08:30pm 16.1 12.4 2.5 40 6.3 ENE 11 11 6 6 1023.2 1022.2 0.0
02/08:00pm 15.7 12.0 2.5 41 6.0 ENE 11 11 6 6 1023.0 1022.0 0.0
02/07:30pm 17.0 13.7 2.6 38 6.7 ESE 9 11 5 6 1022.8 1021.8 0.0
02/07:00pm 17.6 13.8 2.0 35 7.2 ESE 11 13 6 7 1022.6 1021.6 0.0
02/06:30pm 19.2 15.5 2.1 32 8.0 E 11 13 6 7 1022.3 1021.3 0.0
02/06:00pm 21.6 17.9 2.3 28 9.2 ENE 11 13 6 7 1022.0 1021.0 0.0
02/05:30pm 22.8 19.4 1.8 25 10.0 ENE 9 13 5 7 1021.7 1020.7 0.0
02/05:00pm 24.5 20.7 2.0 23 10.9 NNE 11 15 6 8 1021.5 1020.5 0.0
02/04:30pm 25.3 21.6 2.1 22 11.4 NE 11 19 6 10 1021.4 1020.4 0.0
02/04:00pm 25.6 22.2 1.7 21 11.6 NNE 9 17 5 9 1021.3 1020.2 0.0
02/03:30pm 26.0 22.6 2.0 21 11.8 N 9 15 5 8 1021.3 1020.2 0.0
02/03:00pm 26.2 23.3 2.8 22 11.6 ENE 7 17 4 9 1021.4 1020.4 0.0
02/02:30pm 26.1 22.4 2.1 21 11.8 NE 11 17 6 9 1021.7 1020.7 0.0
02/02:00pm 26.3 22.2 2.3 21 11.8 NNW 13 20 7 11 1022.0 1021.0 0.0
02/01:30pm 25.8 22.5 2.5 22 11.5 NE 9 20 5 11 1022.3 1021.3 0.0
02/01:00pm 25.5 20.5 1.6 21 11.6 NE 17 28 9 15 1022.7 1021.7 0.0
02/12:30pm 25.2 20.3 2.0 22 11.3 ENE 17 24 9 13 1023.2 1022.2 0.0
02/12:00pm 25.6 20.7 2.3 22 11.4 ENE 17 28 9 15 1023.9 1022.9 0.0
02/11:30am 25.1 20.8 3.1 24 11.0 NE 15 20 8 11 1024.5 1023.5 0.0
02/11:00am 24.2 19.6 3.5 26 10.3 NE 17 20 9 11 1024.9 1023.9 0.0

Other Formats:

Comma delimited format used in spreadsheet applications
http://www.bom.gov.au/fwo/IDW60801/IDW60801.94316.axf

JavaScript Object Notation format (JSON) in row-major order
http://www.bom.gov.au/fwo/IDW60801/IDW60801.94316.json